sensor_id;sensor_type;location;lat;lon;timestamp;pressure;altitude;pressure_sealevel;temperature;humidity
71504;BME280;59323;50.874;7.028;2022-12-26T00:00:26;100762.31;;;11.99;90.91
71504;BME280;59323;50.874;7.028;2022-12-26T00:02:51;100763.47;;;11.98;90.33
71504;BME280;59323;50.874;7.028;2022-12-26T00:05:16;100767.00;;;12.02;89.76
71504;BME280;59323;50.874;7.028;2022-12-26T00:07:42;100765.44;;;12.01;90.22
71504;BME280;59323;50.874;7.028;2022-12-26T00:10:07;100764.97;;;11.96;90.21
71504;BME280;59323;50.874;7.028;2022-12-26T00:12:32;100760.31;;;11.96;90.51
71504;BME280;59323;50.874;7.028;2022-12-26T00:14:59;100764.56;;;11.94;90.78
71504;BME280;59323;50.874;7.028;2022-12-26T00:17:24;100756.38;;;11.90;91.04
71504;BME280;59323;50.874;7.028;2022-12-26T00:19:50;100763.38;;;11.91;90.47
71504;BME280;59323;50.874;7.028;2022-12-26T00:22:15;100771.09;;;11.86;90.84
71504;BME280;59323;50.874;7.028;2022-12-26T00:24:40;100759.78;;;11.84;91.17
71504;BME280;59323;50.874;7.028;2022-12-26T00:27:06;100754.19;;;11.73;91.40
71504;BME280;59323;50.874;7.028;2022-12-26T00:29:31;100773.38;;;11.80;91.43
71504;BME280;59323;50.874;7.028;2022-12-26T00:31:56;100765.91;;;11.77;91.30
71504;BME280;59323;50.874;7.028;2022-12-26T00:34:22;100770.69;;;11.84;91.38
71504;BME280;59323;50.874;7.028;2022-12-26T00:36:47;100762.56;;;11.87;90.88
71504;BME280;59323;50.874;7.028;2022-12-26T00:39:12;100776.97;;;11.88;91.42
71504;BME280;59323;50.874;7.028;2022-12-26T00:41:38;100766.06;;;11.88;91.11
71504;BME280;59323;50.874;7.028;2022-12-26T00:44:03;100768.38;;;11.86;90.89
71504;BME280;59323;50.874;7.028;2022-12-26T00:46:28;100768.38;;;11.86;90.79
71504;BME280;59323;50.874;7.028;2022-12-26T00:48:54;100770.66;;;11.80;90.91
71504;BME280;59323;50.874;7.028;2022-12-26T00:51:19;100764.88;;;11.85;90.54
71504;BME280;59323;50.874;7.028;2022-12-26T00:53:45;100759.84;;;11.87;90.54
71504;BME280;59323;50.874;7.028;2022-12-26T00:56:11;100778.09;;;11.87;89.57
71504;BME280;59323;50.874;7.028;2022-12-26T00:58:37;100776.13;;;11.84;90.05
71504;BME280;59323;50.874;7.028;2022-12-26T01:01:13;100773.00;;;11.82;89.82
71504;BME280;59323;50.874;7.028;2022-12-26T01:03:41;100776.81;;;11.77;89.88
71504;BME280;59323;50.874;7.028;2022-12-26T01:06:06;100776.34;;;11.71;89.98
71504;BME280;59323;50.874;7.028;2022-12-26T01:08:32;100768.91;;;11.68;89.72
71504;BME280;59323;50.874;7.028;2022-12-26T01:11:01;100776.38;;;11.75;89.15
71504;BME280;59323;50.874;7.028;2022-12-26T01:13:27;100781.72;;;11.68;89.71
71504;BME280;59323;50.874;7.028;2022-12-26T01:15:53;100800.41;;;11.69;88.82
71504;BME280;59323;50.874;7.028;2022-12-26T01:18:19;100801.06;;;11.59;89.14
71504;BME280;59323;50.874;7.028;2022-12-26T01:20:45;100816.56;;;11.55;89.75
71504;BME280;59323;50.874;7.028;2022-12-26T01:23:10;100822.38;;;11.54;89.41
71504;BME280;59323;50.874;7.028;2022-12-26T01:25:35;100827.34;;;11.48;89.50
71504;BME280;59323;50.874;7.028;2022-12-26T01:28:02;100821.84;;;11.44;89.87
71504;BME280;59323;50.874;7.028;2022-12-26T01:30:28;100821.81;;;11.41;89.63
71504;BME280;59323;50.874;7.028;2022-12-26T01:32:53;100819.78;;;11.34;89.73
71504;BME280;59323;50.874;7.028;2022-12-26T01:35:18;100823.59;;;11.30;90.09
71504;BME280;59323;50.874;7.028;2022-12-26T01:37:44;100825.47;;;11.26;90.20
71504;BME280;59323;50.874;7.028;2022-12-26T01:40:11;100835.88;;;11.20;90.82
71504;BME280;59323;50.874;7.028;2022-12-26T01:42:38;100833.84;;;11.14;90.78
71504;BME280;59323;50.874;7.028;2022-12-26T01:45:05;100832.28;;;11.13;91.23
71504;BME280;59323;50.874;7.028;2022-12-26T01:50:31;100823.09;;;10.98;92.17
71504;BME280;59323;50.874;7.028;2022-12-26T01:53:02;100835.41;;;10.92;91.85
71504;BME280;59323;50.874;7.028;2022-12-26T01:55:31;100839.59;;;10.86;92.42
71504;BME280;59323;50.874;7.028;2022-12-26T01:58:00;100840.69;;;10.81;92.37
71504;BME280;59323;50.874;7.028;2022-12-26T02:00:27;100836.34;;;10.76;92.60
71504;BME280;59323;50.874;7.028;2022-12-26T02:02:52;100828.19;;;10.76;92.45
71504;BME280;59323;50.874;7.028;2022-12-26T02:05:37;100833.31;;;10.82;91.96
71504;BME280;59323;50.874;7.028;2022-12-26T02:08:10;100820.19;;;10.87;91.84
71504;BME280;59323;50.874;7.028;2022-12-26T02:10:59;100840.44;;;10.90;91.12
71504;BME280;59323;50.874;7.028;2022-12-26T02:13:27;100835.72;;;10.87;90.92
71504;BME280;59323;50.874;7.028;2022-12-26T02:15:54;100854.03;;;10.90;90.80
71504;BME280;59323;50.874;7.028;2022-12-26T02:18:19;100861.81;;;10.91;90.76
71504;BME280;59323;50.874;7.028;2022-12-26T02:21:04;100860.63;;;10.89;90.80
71504;BME280;59323;50.874;7.028;2022-12-26T02:29:45;100856.81;;;10.93;90.50
71504;BME280;59323;50.874;7.028;2022-12-26T02:32:32;100844.84;;;10.98;90.49
71504;BME280;59323;50.874;7.028;2022-12-26T02:38:49;100846.97;;;11.08;90.17
71504;BME280;59323;50.874;7.028;2022-12-26T02:46:40;100858.91;;;11.03;90.48
71504;BME280;59323;50.874;7.028;2022-12-26T02:50:00;100865.91;;;11.04;90.57
71504;BME280;59323;50.874;7.028;2022-12-26T02:59:01;100863.44;;;10.96;91.23
71504;BME280;59323;50.874;7.028;2022-12-26T03:01:50;100867.31;;;10.95;91.24
71504;BME280;59323;50.874;7.028;2022-12-26T03:04:39;100855.66;;;10.94;92.69
71504;BME280;59323;50.874;7.028;2022-12-26T03:07:28;100852.41;;;10.85;93.88
71504;BME280;59323;50.874;7.028;2022-12-26T03:10:18;100846.84;;;10.78;95.13
71504;BME280;59323;50.874;7.028;2022-12-26T03:13:06;100851.00;;;10.72;95.74
71504;BME280;59323;50.874;7.028;2022-12-26T03:15:51;100845.09;;;10.66;96.26
71504;BME280;59323;50.874;7.028;2022-12-26T03:18:39;100855.47;;;10.61;96.60
71504;BME280;59323;50.874;7.028;2022-12-26T03:21:07;100860.41;;;10.55;97.53
71504;BME280;59323;50.874;7.028;2022-12-26T03:23:35;100852.28;;;10.55;97.39
71504;BME280;59323;50.874;7.028;2022-12-26T03:26:07;100855.00;;;10.55;97.92
71504;BME280;59323;50.874;7.028;2022-12-26T03:28:52;100850.69;;;10.54;97.93
71504;BME280;59323;50.874;7.028;2022-12-26T03:31:37;100843.28;;;10.51;98.64
71504;BME280;59323;50.874;7.028;2022-12-26T03:34:05;100849.84;;;10.50;99.06
71504;BME280;59323;50.874;7.028;2022-12-26T03:36:48;100864.94;;;10.47;98.93
71504;BME280;59323;50.874;7.028;2022-12-26T03:39:46;100869.88;;;10.42;99.00
71504;BME280;59323;50.874;7.028;2022-12-26T03:48:49;100862.78;;;10.37;99.39
71504;BME280;59323;50.874;7.028;2022-12-26T03:57:31;100882.44;;;10.50;98.13
71504;BME280;59323;50.874;7.028;2022-12-26T04:00:17;100876.78;;;10.59;96.87
71504;BME280;59323;50.874;7.028;2022-12-26T04:03:09;100872.56;;;10.61;96.39
71504;BME280;59323;50.874;7.028;2022-12-26T04:05:58;100883.13;;;10.66;95.71
71504;BME280;59323;50.874;7.028;2022-12-26T04:08:52;100871.97;;;10.71;95.01
71504;BME280;59323;50.874;7.028;2022-12-26T04:11:38;100861.56;;;10.77;95.18
71504;BME280;59323;50.874;7.028;2022-12-26T04:14:49;100871.44;;;10.85;93.96
71504;BME280;59323;50.874;7.028;2022-12-26T04:17:55;100878.91;;;10.92;93.46
71504;BME280;59323;50.874;7.028;2022-12-26T04:21:03;100892.22;;;10.97;92.99
71504;BME280;59323;50.874;7.028;2022-12-26T04:23:54;100895.66;;;10.94;92.64
71504;BME280;59323;50.874;7.028;2022-12-26T04:26:43;100894.09;;;10.93;92.97
71504;BME280;59323;50.874;7.028;2022-12-26T04:29:29;100897.94;;;10.92;93.41
71504;BME280;59323;50.874;7.028;2022-12-26T04:32:38;100901.38;;;10.89;93.77
71504;BME280;59323;50.874;7.028;2022-12-26T04:35:27;100891.66;;;10.88;93.41
71504;BME280;59323;50.874;7.028;2022-12-26T04:38:24;100892.03;;;10.86;93.80
71504;BME280;59323;50.874;7.028;2022-12-26T04:41:12;100899.75;;;10.84;93.67
71504;BME280;59323;50.874;7.028;2022-12-26T04:43:59;100905.56;;;10.83;93.75
71504;BME280;59323;50.874;7.028;2022-12-26T04:46:47;100903.25;;;10.85;94.19
71504;BME280;59323;50.874;7.028;2022-12-26T04:49:14;100904.03;;;10.85;94.00
71504;BME280;59323;50.874;7.028;2022-12-26T04:52:01;100906.53;;;10.94;93.86
71504;BME280;59323;50.874;7.028;2022-12-26T04:54:28;100910.81;;;10.95;93.83
71504;BME280;59323;50.874;7.028;2022-12-26T04:56:54;100899.53;;;10.93;93.31
71504;BME280;59323;50.874;7.028;2022-12-26T04:59:20;100897.28;;;10.98;91.55
71504;BME280;59323;50.874;7.028;2022-12-26T05:01:46;100908.22;;;11.02;91.17
71504;BME280;59323;50.874;7.028;2022-12-26T05:04:29;100902.00;;;11.01;91.02
71504;BME280;59323;50.874;7.028;2022-12-26T05:07:22;100897.72;;;11.00;90.60
71504;BME280;59323;50.874;7.028;2022-12-26T05:10:14;100904.59;;;10.94;91.46
71504;BME280;59323;50.874;7.028;2022-12-26T05:12:40;100910.03;;;10.94;91.55
71504;BME280;59323;50.874;7.028;2022-12-26T05:15:06;100900.53;;;10.85;92.11
71504;BME280;59323;50.874;7.028;2022-12-26T05:17:31;100916.38;;;10.79;92.64
71504;BME280;59323;50.874;7.028;2022-12-26T05:20:15;100927.53;;;10.74;93.63
71504;BME280;59323;50.874;7.028;2022-12-26T05:23:24;100936.72;;;10.66;95.40
71504;BME280;59323;50.874;7.028;2022-12-26T05:26:27;100926.63;;;10.66;95.58
71504;BME280;59323;50.874;7.028;2022-12-26T05:29:11;100925.34;;;10.60;96.35
71504;BME280;59323;50.874;7.028;2022-12-26T05:31:36;100933.78;;;10.55;97.50
71504;BME280;59323;50.874;7.028;2022-12-26T05:34:02;100927.50;;;10.51;98.36
71504;BME280;59323;50.874;7.028;2022-12-26T05:36:41;100919.72;;;10.50;99.40
71504;BME280;59323;50.874;7.028;2022-12-26T05:39:08;100924.34;;;10.49;100.00
71504;BME280;59323;50.874;7.028;2022-12-26T05:41:34;100921.63;;;10.49;100.00
71504;BME280;59323;50.874;7.028;2022-12-26T05:44:00;100934.44;;;10.48;100.00
71504;BME280;59323;50.874;7.028;2022-12-26T05:46:25;100926.16;;;10.41;100.00
71504;BME280;59323;50.874;7.028;2022-12-26T05:48:51;100933.34;;;10.34;100.00
71504;BME280;59323;50.874;7.028;2022-12-26T05:51:16;100937.91;;;10.30;100.00
71504;BME280;59323;50.874;7.028;2022-12-26T05:53:41;100943.28;;;10.26;100.00
71504;BME280;59323;50.874;7.028;2022-12-26T05:56:10;100938.28;;;10.28;100.00
71504;BME280;59323;50.874;7.028;2022-12-26T05:58:36;100942.56;;;10.29;100.00
71504;BME280;59323;50.874;7.028;2022-12-26T06:01:08;100947.91;;;10.26;100.00
71504;BME280;59323;50.874;7.028;2022-12-26T06:03:34;100952.84;;;10.20;100.00
71504;BME280;59323;50.874;7.028;2022-12-26T06:06:00;100953.09;;;10.15;100.00
71504;BME280;59323;50.874;7.028;2022-12-26T06:08:25;100949.94;;;10.13;100.00
71504;BME280;59323;50.874;7.028;2022-12-26T06:10:51;100947.59;;;10.11;100.00
71504;BME280;59323;50.874;7.028;2022-12-26T06:13:16;100951.03;;;10.08;100.00
71504;BME280;59323;50.874;7.028;2022-12-26T06:15:41;100926.50;;;10.05;100.00
71504;BME280;59323;50.874;7.028;2022-12-26T06:18:07;100943.22;;;10.07;100.00
71504;BME280;59323;50.874;7.028;2022-12-26T06:20:32;100946.66;;;10.04;100.00
71504;BME280;59323;50.874;7.028;2022-12-26T06:22:57;100949.66;;;9.99;100.00
71504;BME280;59323;50.874;7.028;2022-12-26T06:25:23;100946.44;;;9.93;100.00
71504;BME280;59323;50.874;7.028;2022-12-26T06:27:50;100956.56;;;9.96;100.00
71504;BME280;59323;50.874;7.028;2022-12-26T06:30:15;100949.13;;;9.93;100.00
71504;BME280;59323;50.874;7.028;2022-12-26T06:32:40;100957.28;;;9.93;100.00
71504;BME280;59323;50.874;7.028;2022-12-26T06:35:06;100960.88;;;9.97;100.00
71504;BME280;59323;50.874;7.028;2022-12-26T06:37:32;100964.78;;;10.00;100.00
71504;BME280;59323;50.874;7.028;2022-12-26T06:39:58;100966.00;;;10.02;100.00
71504;BME280;59323;50.874;7.028;2022-12-26T06:42:23;100949.00;;;10.05;100.00
71504;BME280;59323;50.874;7.028;2022-12-26T06:44:49;100942.44;;;10.06;100.00
71504;BME280;59323;50.874;7.028;2022-12-26T06:47:14;100941.66;;;10.06;100.00
71504;BME280;59323;50.874;7.028;2022-12-26T06:49:39;100944.38;;;10.06;100.00
71504;BME280;59323;50.874;7.028;2022-12-26T06:52:04;100937.28;;;10.01;100.00
71504;BME280;59323;50.874;7.028;2022-12-26T06:54:30;100949.28;;;10.00;100.00
71504;BME280;59323;50.874;7.028;2022-12-26T06:56:55;100947.28;;;9.97;100.00
71504;BME280;59323;50.874;7.028;2022-12-26T06:59:20;100962.09;;;10.00;100.00
71504;BME280;59323;50.874;7.028;2022-12-26T07:01:46;100958.16;;;9.97;100.00
71504;BME280;59323;50.874;7.028;2022-12-26T07:04:15;100964.72;;;9.96;100.00
71504;BME280;59323;50.874;7.028;2022-12-26T07:06:40;100970.50;;;9.95;100.00
71504;BME280;59323;50.874;7.028;2022-12-26T07:09:09;100976.63;;;9.92;100.00
71504;BME280;59323;50.874;7.028;2022-12-26T07:11:37;100967.28;;;9.89;100.00
71504;BME280;59323;50.874;7.028;2022-12-26T07:14:03;100965.63;;;9.84;100.00
71504;BME280;59323;50.874;7.028;2022-12-26T07:16:29;100970.97;;;9.81;100.00
71504;BME280;59323;50.874;7.028;2022-12-26T07:18:55;100973.31;;;9.82;100.00
71504;BME280;59323;50.874;7.028;2022-12-26T07:21:22;100976.91;;;9.87;100.00
71504;BME280;59323;50.874;7.028;2022-12-26T07:23:48;100989.25;;;9.84;100.00
71504;BME280;59323;50.874;7.028;2022-12-26T07:26:17;100994.19;;;9.78;100.00
71504;BME280;59323;50.874;7.028;2022-12-26T07:28:43;100993.38;;;9.78;100.00
71504;BME280;59323;50.874;7.028;2022-12-26T07:31:08;100997.59;;;9.75;100.00
71504;BME280;59323;50.874;7.028;2022-12-26T07:33:33;101001.78;;;9.73;100.00
71504;BME280;59323;50.874;7.028;2022-12-26T07:36:03;101005.19;;;9.70;100.00
71504;BME280;59323;50.874;7.028;2022-12-26T07:38:28;101014.47;;;9.69;100.00
71504;BME280;59323;50.874;7.028;2022-12-26T07:40:57;101015.69;;;9.71;100.00
71504;BME280;59323;50.874;7.028;2022-12-26T07:43:23;101020.75;;;9.73;100.00
71504;BME280;59323;50.874;7.028;2022-12-26T07:45:49;101021.13;;;9.71;100.00
71504;BME280;59323;50.874;7.028;2022-12-26T07:48:15;101022.34;;;9.74;100.00
71504;BME280;59323;50.874;7.028;2022-12-26T07:50:41;101027.75;;;9.74;100.00
71504;BME280;59323;50.874;7.028;2022-12-26T07:53:11;101022.59;;;9.69;100.00
71504;BME280;59323;50.874;7.028;2022-12-26T07:55:36;101022.94;;;9.67;100.00
71504;BME280;59323;50.874;7.028;2022-12-26T07:58:01;101028.72;;;9.66;100.00
71504;BME280;59323;50.874;7.028;2022-12-26T08:00:27;101038.38;;;9.63;100.00
71504;BME280;59323;50.874;7.028;2022-12-26T08:02:52;101043.34;;;9.61;100.00
71504;BME280;59323;50.874;7.028;2022-12-26T08:05:18;101044.13;;;9.62;100.00
71504;BME280;59323;50.874;7.028;2022-12-26T08:07:46;101052.19;;;9.58;100.00
71504;BME280;59323;50.874;7.028;2022-12-26T08:10:12;101039.75;;;9.57;100.00
71504;BME280;59323;50.874;7.028;2022-12-26T08:12:37;101047.56;;;9.59;100.00
71504;BME280;59323;50.874;7.028;2022-12-26T08:15:03;101045.72;;;9.63;100.00
71504;BME280;59323;50.874;7.028;2022-12-26T08:17:28;101047.19;;;9.60;100.00
71504;BME280;59323;50.874;7.028;2022-12-26T08:19:57;101038.63;;;9.58;100.00
71504;BME280;59323;50.874;7.028;2022-12-26T08:22:22;101044.75;;;9.55;100.00
71504;BME280;59323;50.874;7.028;2022-12-26T08:24:47;101042.81;;;9.56;100.00
71504;BME280;59323;50.874;7.028;2022-12-26T08:27:13;101036.16;;;9.53;100.00
71504;BME280;59323;50.874;7.028;2022-12-26T08:29:38;101033.09;;;9.54;100.00
71504;BME280;59323;50.874;7.028;2022-12-26T08:32:04;101035.81;;;9.54;100.00
71504;BME280;59323;50.874;7.028;2022-12-26T08:34:33;101044.31;;;9.53;100.00
71504;BME280;59323;50.874;7.028;2022-12-26T08:36:58;101043.88;;;9.51;100.00
71504;BME280;59323;50.874;7.028;2022-12-26T08:39:24;101043.88;;;9.51;100.00
71504;BME280;59323;50.874;7.028;2022-12-26T08:41:49;101040.72;;;9.49;100.00
71504;BME280;59323;50.874;7.028;2022-12-26T08:44:14;101047.28;;;9.48;100.00
71504;BME280;59323;50.874;7.028;2022-12-26T08:46:42;101044.91;;;9.46;100.00
71504;BME280;59323;50.874;7.028;2022-12-26T08:49:07;101050.69;;;9.45;100.00
71504;BME280;59323;50.874;7.028;2022-12-26T08:51:33;101048.84;;;9.49;100.00
71504;BME280;59323;50.874;7.028;2022-12-26T08:53:58;101046.94;;;9.49;100.00
71504;BME280;59323;50.874;7.028;2022-12-26T08:56:25;101061.72;;;9.52;100.00
71504;BME280;59323;50.874;7.028;2022-12-26T08:58:52;101056.75;;;9.54;100.00
71504;BME280;59323;50.874;7.028;2022-12-26T09:01:23;101068.91;;;9.60;100.00
71504;BME280;59323;50.874;7.028;2022-12-26T09:03:55;101067.78;;;9.61;100.00
71504;BME280;59323;50.874;7.028;2022-12-26T09:06:21;101072.84;;;9.63;100.00
71504;BME280;59323;50.874;7.028;2022-12-26T09:08:47;101077.13;;;9.64;100.00
71504;BME280;59323;50.874;7.028;2022-12-26T09:11:18;101086.94;;;9.68;100.00
71504;BME280;59323;50.874;7.028;2022-12-26T09:13:45;101086.59;;;9.70;100.00
71504;BME280;59323;50.874;7.028;2022-12-26T09:16:16;101097.09;;;9.71;100.00
71504;BME280;59323;50.874;7.028;2022-12-26T09:18:43;101090.66;;;9.76;100.00
71504;BME280;59323;50.874;7.028;2022-12-26T09:21:10;101100.38;;;9.77;100.00
71504;BME280;59323;50.874;7.028;2022-12-26T09:23:37;101091.88;;;9.78;100.00
71504;BME280;59323;50.874;7.028;2022-12-26T09:26:08;101099.41;;;9.85;100.00
71504;BME280;59323;50.874;7.028;2022-12-26T09:28:34;101093.63;;;9.87;100.00
71504;BME280;59323;50.874;7.028;2022-12-26T09:31:02;101109.56;;;9.88;100.00
71504;BME280;59323;50.874;7.028;2022-12-26T09:33:29;101103.69;;;9.86;100.00
71504;BME280;59323;50.874;7.028;2022-12-26T09:35:55;101108.78;;;9.88;100.00
71504;BME280;59323;50.874;7.028;2022-12-26T09:38:21;101108.00;;;9.87;100.00
71504;BME280;59323;50.874;7.028;2022-12-26T09:41:21;101120.16;;;9.93;100.00
71504;BME280;59323;50.874;7.028;2022-12-26T09:44:16;101127.25;;;9.98;100.00
71504;BME280;59323;50.874;7.028;2022-12-26T09:47:03;101131.53;;;9.99;100.00
71504;BME280;59323;50.874;7.028;2022-12-26T09:49:35;101142.94;;;10.04;100.00
71504;BME280;59323;50.874;7.028;2022-12-26T09:52:10;101136.34;;;10.05;100.00
71504;BME280;59323;50.874;7.028;2022-12-26T09:54:41;101137.31;;;10.13;100.00
71504;BME280;59323;50.874;7.028;2022-12-26T09:57:14;101137.75;;;10.15;100.00
71504;BME280;59323;50.874;7.028;2022-12-26T10:00:02;101138.09;;;10.13;100.00
71504;BME280;59323;50.874;7.028;2022-12-26T10:02:29;101142.59;;;10.22;100.00
71504;BME280;59323;50.874;7.028;2022-12-26T10:04:55;101146.34;;;10.33;100.00
71504;BME280;59323;50.874;7.028;2022-12-26T10:10:08;101140.50;;;10.46;98.17
71504;BME280;59323;50.874;7.028;2022-12-26T10:15:50;101144.00;;;10.47;96.63
71504;BME280;59323;50.874;7.028;2022-12-26T10:18:21;101141.78;;;10.53;93.71
71504;BME280;59323;50.874;7.028;2022-12-26T10:23:53;101141.16;;;10.59;93.58
71504;BME280;59323;50.874;7.028;2022-12-26T10:26:25;101138.00;;;10.57;94.14
71504;BME280;59323;50.874;7.028;2022-12-26T10:29:03;101142.75;;;10.60;94.79
71504;BME280;59323;50.874;7.028;2022-12-26T10:31:51;101145.19;;;10.65;92.99
71504;BME280;59323;50.874;7.028;2022-12-26T10:34:24;101153.06;;;10.70;92.32
71504;BME280;59323;50.874;7.028;2022-12-26T10:36:54;101150.44;;;10.74;92.81
71504;BME280;59323;50.874;7.028;2022-12-26T10:42:29;101152.31;;;10.89;90.66
71504;BME280;59323;50.874;7.028;2022-12-26T10:44:57;101149.22;;;10.91;91.67
71504;BME280;59323;50.874;7.028;2022-12-26T10:47:32;101143.88;;;10.94;90.78
71504;BME280;59323;50.874;7.028;2022-12-26T10:50:01;101137.94;;;10.89;90.66
71504;BME280;59323;50.874;7.028;2022-12-26T10:52:32;101138.28;;;10.87;90.98
71504;BME280;59323;50.874;7.028;2022-12-26T10:54:59;101125.13;;;10.89;89.68
71504;BME280;59323;50.874;7.028;2022-12-26T10:57:27;101139.50;;;10.90;89.38
71504;BME280;59323;50.874;7.028;2022-12-26T10:59:54;101128.19;;;10.88;88.57
71504;BME280;59323;50.874;7.028;2022-12-26T11:02:30;101133.28;;;10.89;89.06
71504;BME280;59323;50.874;7.028;2022-12-26T11:05:08;101128.50;;;11.02;86.03
71504;BME280;59323;50.874;7.028;2022-12-26T11:07:49;101139.47;;;11.05;87.07
71504;BME280;59323;50.874;7.028;2022-12-26T11:10:23;101136.56;;;10.98;87.70
71504;BME280;59323;50.874;7.028;2022-12-26T11:12:52;101138.94;;;11.00;88.78
71504;BME280;59323;50.874;7.028;2022-12-26T11:17:53;101142.09;;;11.02;88.70
71504;BME280;59323;50.874;7.028;2022-12-26T11:22:48;101127.50;;;11.10;85.70
71504;BME280;59323;50.874;7.028;2022-12-26T11:25:24;101135.75;;;11.14;86.51
71504;BME280;59323;50.874;7.028;2022-12-26T11:27:58;101134.59;;;11.15;85.63
71504;BME280;59323;50.874;7.028;2022-12-26T11:30:32;101136.59;;;11.18;84.64
71504;BME280;59323;50.874;7.028;2022-12-26T11:35:32;101138.25;;;11.22;84.26
71504;BME280;59323;50.874;7.028;2022-12-26T11:38:05;101131.16;;;11.18;85.44
71504;BME280;59323;50.874;7.028;2022-12-26T11:40:45;101123.78;;;11.18;84.37
71504;BME280;59323;50.874;7.028;2022-12-26T11:43:34;101127.44;;;11.26;83.73
71504;BME280;59323;50.874;7.028;2022-12-26T11:46:00;101128.50;;;11.21;84.94
71504;BME280;59323;50.874;7.028;2022-12-26T11:48:25;101140.09;;;11.18;85.71
71504;BME280;59323;50.874;7.028;2022-12-26T11:50:51;101156.72;;;11.32;83.45
71504;BME280;59323;50.874;7.028;2022-12-26T11:53:19;101144.69;;;11.33;83.34
71504;BME280;59323;50.874;7.028;2022-12-26T11:56:00;101147.84;;;11.35;82.93
71504;BME280;59323;50.874;7.028;2022-12-26T11:58:28;101145.47;;;11.34;84.86
71504;BME280;59323;50.874;7.028;2022-12-26T12:09:05;101139.19;;;11.30;82.47
71504;BME280;59323;50.874;7.028;2022-12-26T12:28:07;101136.88;;;11.32;82.97
71504;BME280;59323;50.874;7.028;2022-12-26T12:31:02;101133.38;;;11.31;82.39
71504;BME280;59323;50.874;7.028;2022-12-26T12:36:16;101123.94;;;11.25;83.68
71504;BME280;59323;50.874;7.028;2022-12-26T12:39:17;101124.66;;;11.22;83.01
71504;BME280;59323;50.874;7.028;2022-12-26T12:47:17;101127.16;;;11.11;84.53
71504;BME280;59323;50.874;7.028;2022-12-26T12:55:42;101136.09;;;11.12;83.78
71504;BME280;59323;50.874;7.028;2022-12-26T12:58:26;101124.63;;;11.03;84.17
71504;BME280;59323;50.874;7.028;2022-12-26T13:01:25;101123.47;;;11.04;84.96
71504;BME280;59323;50.874;7.028;2022-12-26T13:04:07;101124.13;;;10.97;85.41
71504;BME280;59323;50.874;7.028;2022-12-26T13:06:41;101130.50;;;11.05;83.36
71504;BME280;59323;50.874;7.028;2022-12-26T13:09:20;101132.59;;;11.11;83.73
71504;BME280;59323;50.874;7.028;2022-12-26T13:11:54;101128.72;;;11.13;83.66
71504;BME280;59323;50.874;7.028;2022-12-26T13:14:25;101135.25;;;11.08;83.29
71504;BME280;59323;50.874;7.028;2022-12-26T13:20:04;101137.44;;;11.02;83.46
71504;BME280;59323;50.874;7.028;2022-12-26T13:22:40;101132.63;;;10.96;84.74
71504;BME280;59323;50.874;7.028;2022-12-26T13:25:27;101140.00;;;10.95;85.38
71504;BME280;59323;50.874;7.028;2022-12-26T13:27:57;101123.69;;;10.95;84.49
71504;BME280;59323;50.874;7.028;2022-12-26T13:30:34;101128.25;;;10.91;85.68
71504;BME280;59323;50.874;7.028;2022-12-26T13:32:59;101136.34;;;10.88;84.85
71504;BME280;59323;50.874;7.028;2022-12-26T13:35:53;101143.38;;;10.89;85.36
71504;BME280;59323;50.874;7.028;2022-12-26T13:38:20;101131.28;;;10.86;84.75
71504;BME280;59323;50.874;7.028;2022-12-26T13:41:01;101131.63;;;10.85;85.19
71504;BME280;59323;50.874;7.028;2022-12-26T13:44:04;101134.69;;;10.83;85.89
71504;BME280;59323;50.874;7.028;2022-12-26T13:49:29;101149.19;;;10.71;89.50
71504;BME280;59323;50.874;7.028;2022-12-26T13:52:22;101155.63;;;10.63;91.47
71504;BME280;59323;50.874;7.028;2022-12-26T14:05:37;101157.56;;;10.00;95.80
71504;BME280;59323;50.874;7.028;2022-12-26T14:19:37;101181.22;;;9.71;98.76
71504;BME280;59323;50.874;7.028;2022-12-26T14:25:00;101195.81;;;9.67;98.90
71504;BME280;59323;50.874;7.028;2022-12-26T14:27:36;101203.09;;;9.63;98.29
71504;BME280;59323;50.874;7.028;2022-12-26T14:33:52;101227.75;;;9.58;97.74
71504;BME280;59323;50.874;7.028;2022-12-26T14:42:09;101242.69;;;9.51;96.31
71504;BME280;59323;50.874;7.028;2022-12-26T14:44:59;101237.84;;;9.45;93.66
71504;BME280;59323;50.874;7.028;2022-12-26T14:50:34;101246.16;;;9.24;93.29
71504;BME280;59323;50.874;7.028;2022-12-26T14:55:49;101242.34;;;9.13;91.47
71504;BME280;59323;50.874;7.028;2022-12-26T15:01:43;101250.03;;;8.99;92.37
71504;BME280;59323;50.874;7.028;2022-12-26T15:04:02;101249.81;;;8.92;90.70
71504;BME280;59323;50.874;7.028;2022-12-26T15:09:46;101247.09;;;8.79;93.85
71504;BME280;59323;50.874;7.028;2022-12-26T15:31:34;101294.41;;;8.57;95.87
71504;BME280;59323;50.874;7.028;2022-12-26T15:34:06;101293.50;;;8.53;95.66
71504;BME280;59323;50.874;7.028;2022-12-26T15:36:54;101301.41;;;8.58;93.22
71504;BME280;59323;50.874;7.028;2022-12-26T15:50:28;101337.16;;;8.52;93.44
71504;BME280;59323;50.874;7.028;2022-12-26T15:56:21;101346.75;;;8.49;93.70
71504;BME280;59323;50.874;7.028;2022-12-26T16:01:36;101356.84;;;8.40;93.87
71504;BME280;59323;50.874;7.028;2022-12-26T16:04:07;101370.25;;;8.37;94.96
71504;BME280;59323;50.874;7.028;2022-12-26T16:09:31;101376.97;;;8.31;92.76
71504;BME280;59323;50.874;7.028;2022-12-26T16:12:01;101381.03;;;8.24;90.46
71504;BME280;59323;50.874;7.028;2022-12-26T16:14:33;101382.03;;;8.20;87.41
71504;BME280;59323;50.874;7.028;2022-12-26T16:19:41;101388.84;;;8.05;85.12
71504;BME280;59323;50.874;7.028;2022-12-26T16:25:22;101404.53;;;7.91;86.80
71504;BME280;59323;50.874;7.028;2022-12-26T16:27:51;101405.41;;;7.83;87.81
71504;BME280;59323;50.874;7.028;2022-12-26T16:30:24;101415.91;;;7.76;88.84